ENRM

Details ICAO ENRM (RVK)
Name Rorvik Ryum
Region Norway
Timezone Europe/Oslo (UTC+1.0)
Plans Departing 2
Arriving 6
Stats Elevation 13 ft / 4 m (AMSL)
Location 64.837112° 11.143112°
Runways 1
Magnetic Variation 3.710° E
Sunrise 2017-12-14 09:16:08 UTC / 2017-12-14 10:16:08 Local
Sunset 2017-12-14 13:06:51 UTC / 2017-12-14 14:06:51 Local
Advertisement - Login to hide

Runways

ID Width Length Bearing (true) Bearing (mag) Surface Threshold Offset Overrun Length
04 98 ft / 30 m 2,889 ft / 880 m 40.99° 37.28° Asphalt 0 ft / 0 m 0 ft / 0 m
22 98 ft / 30 m 2,889 ft / 880 m 221.01° 217.30° Asphalt 0 ft / 0 m 0 ft / 0 m

Map

Weather


0- 5 10 15 20 25 30 35+ Temperature / ° C

Clouds and Precipitation
Forecast for 2017-12-15 00:00 UTC. Updated a few seconds ago

Ground ~20,000 ft ~40,000 ft Winds

METAR

ENRM 142050Z 04003KT CAVOK M11/M12 Q0988

TAF

Not found
Warning: Do not use this data for real-world aviation or navigation. No guarantee of current accuracy is given.